<?xml version="1.0" encoding="utf-8"?>
<gpx xmlns:xsi="http://www.w3.org/2001/XMLSchema-instance" xmlns:xsd="http://www.w3.org/2001/XMLSchema" version="1.1" creator="Shapelink.com" xmlns="http://www.topografix.com/GPX/1/1" xmlns:gpxtpx="http://www.garmin.com/xmlschemas/TrackPointExtension/v1">
  <metadata>
    <name>Ejecutar 3.80 km, 2019-11-21</name>
    <desc></desc>
    <author><name>Per Rooth</name></author> 
    <time>2019-11-21T18:20:02Z</time>
  </metadata>
  <trk>
    <name>Ejecutar 3.80 km, 2019-11-21</name>
    <trkseg>
      <trkpt lat="56.837304484128" lon="14.794519868916">
        <ele>172.4</ele>
        <time>2019-11-21T18:20:02Z</time>
      </trkpt>
      <trkpt lat="56.837347483275" lon="14.794512995758">
        <ele>171.6</ele>
        <time>2019-11-21T18:20:05Z</time>
      </trkpt>
      <trkpt lat="56.83754822978" lon="14.794537219449">
        <ele>171.8</ele>
        <time>2019-11-21T18:20:13Z</time>
      </trkpt>
      <trkpt lat="56.837740259109" lon="14.794559431484">
        <ele>171.8</ele>
        <time>2019-11-21T18:20:20Z</time>
      </trkpt>
      <trkpt lat="56.837851906017" lon="14.794539231105">
        <ele>171.8</ele>
        <time>2019-11-21T18:20:24Z</time>
      </trkpt>
      <trkpt lat="56.837881158848" lon="14.794464380738">
        <ele>172</ele>
        <time>2019-11-21T18:20:26Z</time>
      </trkpt>
      <trkpt lat="56.837865568514" lon="14.794191382255">
        <ele>173.4</ele>
        <time>2019-11-21T18:20:32Z</time>
      </trkpt>
      <trkpt lat="56.837817959322" lon="14.793854262237">
        <ele>174.6</ele>
        <time>2019-11-21T18:20:39Z</time>
      </trkpt>
      <trkpt lat="56.837782839161" lon="14.793650917343">
        <ele>175.8</ele>
        <time>2019-11-21T18:20:43Z</time>
      </trkpt>
      <trkpt lat="56.837804464463" lon="14.793430641011">
        <ele>176.8</ele>
        <time>2019-11-21T18:20:47Z</time>
      </trkpt>
      <trkpt lat="56.837815528571" lon="14.793271384911">
        <ele>178.2</ele>
        <time>2019-11-21T18:20:50Z</time>
      </trkpt>
      <trkpt lat="56.83780806868" lon="14.79297726404">
        <ele>179.6</ele>
        <time>2019-11-21T18:20:55Z</time>
      </trkpt>
      <trkpt lat="56.83779549583" lon="14.7928716521">
        <ele>180.8</ele>
        <time>2019-11-21T18:20:57Z</time>
      </trkpt>
      <trkpt lat="56.837795579649" lon="14.792506871812">
        <ele>181</ele>
        <time>2019-11-21T18:21:04Z</time>
      </trkpt>
      <trkpt lat="56.837951147713" lon="14.792333450301">
        <ele>180.8</ele>
        <time>2019-11-21T18:21:10Z</time>
      </trkpt>
      <trkpt lat="56.838054328902" lon="14.792291121706">
        <ele>182.2</ele>
        <time>2019-11-21T18:21:14Z</time>
      </trkpt>
      <trkpt lat="56.83814418287" lon="14.792269077309">
        <ele>183.2</ele>
        <time>2019-11-21T18:21:17Z</time>
      </trkpt>
      <trkpt lat="56.838282568039" lon="14.792226413438">
        <ele>182.4</ele>
        <time>2019-11-21T18:21:24Z</time>
      </trkpt>
      <trkpt lat="56.838389688721" lon="14.792175535305">
        <ele>182.6</ele>
        <time>2019-11-21T18:21:28Z</time>
      </trkpt>
      <trkpt lat="56.838418522457" lon="14.792112587236">
        <ele>182.4</ele>
        <time>2019-11-21T18:21:30Z</time>
      </trkpt>
      <trkpt lat="56.838428077823" lon="14.79202340382">
        <ele>182.4</ele>
        <time>2019-11-21T18:21:32Z</time>
      </trkpt>
      <trkpt lat="56.838424892701" lon="14.791946206521">
        <ele>182.4</ele>
        <time>2019-11-21T18:21:34Z</time>
      </trkpt>
      <trkpt lat="56.838434950981" lon="14.791866159376">
        <ele>182.4</ele>
        <time>2019-11-21T18:21:37Z</time>
      </trkpt>
      <trkpt lat="56.838441405044" lon="14.791847132463">
        <ele>182.2</ele>
        <time>2019-11-21T18:21:38Z</time>
      </trkpt>
      <trkpt lat="56.838434867162" lon="14.791784687308">
        <ele>181.8</ele>
        <time>2019-11-21T18:21:40Z</time>
      </trkpt>
      <trkpt lat="56.838365381211" lon="14.79153390086">
        <ele>181</ele>
        <time>2019-11-21T18:21:45Z</time>
      </trkpt>
      <trkpt lat="56.838328081756" lon="14.791368525973">
        <ele>180.8</ele>
        <time>2019-11-21T18:21:49Z</time>
      </trkpt>
      <trkpt lat="56.83838725797" lon="14.791197199937">
        <ele>179.8</ele>
        <time>2019-11-21T18:21:54Z</time>
      </trkpt>
      <trkpt lat="56.838418103362" lon="14.791087648504">
        <ele>179.4</ele>
        <time>2019-11-21T18:21:57Z</time>
      </trkpt>
      <trkpt lat="56.838436040628" lon="14.790967452058">
        <ele>178.6</ele>
        <time>2019-11-21T18:22:01Z</time>
      </trkpt>
      <trkpt lat="56.838448278202" lon="14.790936019933">
        <ele>178</ele>
        <time>2019-11-21T18:22:02Z</time>
      </trkpt>
      <trkpt lat="56.8384601805" lon="14.790860750471">
        <ele>177.2</ele>
        <time>2019-11-21T18:22:04Z</time>
      </trkpt>
      <trkpt lat="56.838485912933" lon="14.790816913134">
        <ele>176.2</ele>
        <time>2019-11-21T18:22:07Z</time>
      </trkpt>
      <trkpt lat="56.838515165764" lon="14.790762682241">
        <ele>176</ele>
        <time>2019-11-21T18:22:10Z</time>
      </trkpt>
      <trkpt lat="56.838570570123" lon="14.790601665942">
        <ele>175.4</ele>
        <time>2019-11-21T18:22:16Z</time>
      </trkpt>
      <trkpt lat="56.838570905399" lon="14.790526647937">
        <ele>175.2</ele>
        <time>2019-11-21T18:22:18Z</time>
      </trkpt>
      <trkpt lat="56.838588591208" lon="14.790486498636">
        <ele>175.2</ele>
        <time>2019-11-21T18:22:19Z</time>
      </trkpt>
      <trkpt lat="56.838602505162" lon="14.790454060683">
        <ele>175</ele>
        <time>2019-11-21T18:22:20Z</time>
      </trkpt>
      <trkpt lat="56.838623124636" lon="14.790411899726">
        <ele>174.2</ele>
        <time>2019-11-21T18:22:24Z</time>
      </trkpt>
      <trkpt lat="56.838643408834" lon="14.790361524507">
        <ele>174.2</ele>
        <time>2019-11-21T18:22:26Z</time>
      </trkpt>
      <trkpt lat="56.838664195946" lon="14.790288182882">
        <ele>174.2</ele>
        <time>2019-11-21T18:22:28Z</time>
      </trkpt>
      <trkpt lat="56.838678445176" lon="14.790207297547">
        <ele>174</ele>
        <time>2019-11-21T18:22:30Z</time>
      </trkpt>
      <trkpt lat="56.838717337192" lon="14.789873195013">
        <ele>173.4</ele>
        <time>2019-11-21T18:22:38Z</time>
      </trkpt>
      <trkpt lat="56.83874265053" lon="14.789821897785">
        <ele>173.2</ele>
        <time>2019-11-21T18:22:40Z</time>
      </trkpt>
      <trkpt lat="56.838764862565" lon="14.789787699633">
        <ele>173</ele>
        <time>2019-11-21T18:22:41Z</time>
      </trkpt>
      <trkpt lat="56.83878204546" lon="14.789746712142">
        <ele>172.4</ele>
        <time>2019-11-21T18:22:43Z</time>
      </trkpt>
      <trkpt lat="56.838793109568" lon="14.789652331948">
        <ele>172</ele>
        <time>2019-11-21T18:22:46Z</time>
      </trkpt>
      <trkpt lat="56.838805766237" lon="14.789623079117">
        <ele>171.8</ele>
        <time>2019-11-21T18:22:47Z</time>
      </trkpt>
      <trkpt lat="56.838813729042" lon="14.789565998378">
        <ele>171</ele>
        <time>2019-11-21T18:22:49Z</time>
      </trkpt>
      <trkpt lat="56.838813561404" lon="14.789513443865">
        <ele>170.4</ele>
        <time>2019-11-21T18:22:51Z</time>
      </trkpt>
      <trkpt lat="56.838829067919" lon="14.789440772792">
        <ele>170</ele>
        <time>2019-11-21T18:22:54Z</time>
      </trkpt>
      <trkpt lat="56.838822194761" lon="14.78942250025">
        <ele>169.8</ele>
        <time>2019-11-21T18:22:55Z</time>
      </trkpt>
      <trkpt lat="56.838827391539" lon="14.789403808613">
        <ele>169.8</ele>
        <time>2019-11-21T18:22:56Z</time>
      </trkpt>
      <trkpt lat="56.838844490615" lon="14.789315547206">
        <ele>169.6</ele>
        <time>2019-11-21T18:23:00Z</time>
      </trkpt>
      <trkpt lat="56.838841054036" lon="14.789278583027">
        <ele>169.6</ele>
        <time>2019-11-21T18:23:02Z</time>
      </trkpt>
      <trkpt lat="56.838808532264" lon="14.789228291627">
        <ele>169.6</ele>
        <time>2019-11-21T18:23:05Z</time>
      </trkpt>
      <trkpt lat="56.838738711037" lon="14.789142796247">
        <ele>169.2</ele>
        <time>2019-11-21T18:23:08Z</time>
      </trkpt>
      <trkpt lat="56.838704848161" lon="14.789091331381">
        <ele>168.8</ele>
        <time>2019-11-21T18:23:10Z</time>
      </trkpt>
      <trkpt lat="56.838538718903" lon="14.788977588998">
        <ele>167.8</ele>
        <time>2019-11-21T18:23:17Z</time>
      </trkpt>
      <trkpt lat="56.838444757804" lon="14.78900172887">
        <ele>167.2</ele>
        <time>2019-11-21T18:23:21Z</time>
      </trkpt>
      <trkpt lat="56.838400082277" lon="14.78900843439">
        <ele>167</ele>
        <time>2019-11-21T18:23:24Z</time>
      </trkpt>
      <trkpt lat="56.838343923547" lon="14.788916987861">
        <ele>168</ele>
        <time>2019-11-21T18:23:28Z</time>
      </trkpt>
      <trkpt lat="56.838317352924" lon="14.788786481678">
        <ele>169</ele>
        <time>2019-11-21T18:23:31Z</time>
      </trkpt>
      <trkpt lat="56.838272928854" lon="14.788486325839">
        <ele>169</ele>
        <time>2019-11-21T18:23:38Z</time>
      </trkpt>
      <trkpt lat="56.838260439823" lon="14.788466796012">
        <ele>168.8</ele>
        <time>2019-11-21T18:23:40Z</time>
      </trkpt>
      <trkpt lat="56.838230767897" lon="14.788421030838">
        <ele>168.6</ele>
        <time>2019-11-21T18:23:42Z</time>
      </trkpt>
      <trkpt lat="56.838163042145" lon="14.788260265996">
        <ele>170</ele>
        <time>2019-11-21T18:23:50Z</time>
      </trkpt>
      <trkpt lat="56.838148206182" lon="14.788232773364">
        <ele>170.2</ele>
        <time>2019-11-21T18:23:51Z</time>
      </trkpt>
      <trkpt lat="56.838091879814" lon="14.788165550526">
        <ele>170.6</ele>
        <time>2019-11-21T18:23:55Z</time>
      </trkpt>
      <trkpt lat="56.83798576496" lon="14.788057004921">
        <ele>171.4</ele>
        <time>2019-11-21T18:23:59Z</time>
      </trkpt>
      <trkpt lat="56.837817791684" lon="14.787914428802">
        <ele>172</ele>
        <time>2019-11-21T18:24:08Z</time>
      </trkpt>
      <trkpt lat="56.837662726534" lon="14.787743018947">
        <ele>171</ele>
        <time>2019-11-21T18:24:16Z</time>
      </trkpt>
      <trkpt lat="56.837502632244" lon="14.787604885235">
        <ele>170.4</ele>
        <time>2019-11-21T18:24:22Z</time>
      </trkpt>
      <trkpt lat="56.837484443521" lon="14.787593904946">
        <ele>170.2</ele>
        <time>2019-11-21T18:24:23Z</time>
      </trkpt>
      <trkpt lat="56.83746608716" lon="14.787561131717">
        <ele>170.4</ele>
        <time>2019-11-21T18:24:25Z</time>
      </trkpt>
      <trkpt lat="56.83743423594" lon="14.78750891248">
        <ele>170.2</ele>
        <time>2019-11-21T18:24:27Z</time>
      </trkpt>
      <trkpt lat="56.837362570695" lon="14.787407156214">
        <ele>169.6</ele>
        <time>2019-11-21T18:24:32Z</time>
      </trkpt>
      <trkpt lat="56.837208846649" lon="14.787213618143">
        <ele>170.4</ele>
        <time>2019-11-21T18:24:41Z</time>
      </trkpt>
      <trkpt lat="56.837097786474" lon="14.787039023166">
        <ele>171.2</ele>
        <time>2019-11-21T18:24:49Z</time>
      </trkpt>
      <trkpt lat="56.837083453425" lon="14.78682243487">
        <ele>171.4</ele>
        <time>2019-11-21T18:24:54Z</time>
      </trkpt>
      <trkpt lat="56.836997874226" lon="14.786514483864">
        <ele>172</ele>
        <time>2019-11-21T18:25:01Z</time>
      </trkpt>
      <trkpt lat="56.836959652762" lon="14.786447261026">
        <ele>171.8</ele>
        <time>2019-11-21T18:25:04Z</time>
      </trkpt>
      <trkpt lat="56.83694892393" lon="14.786402166404">
        <ele>172.2</ele>
        <time>2019-11-21T18:25:06Z</time>
      </trkpt>
      <trkpt lat="56.836944397704" lon="14.786386240794">
        <ele>172.4</ele>
        <time>2019-11-21T18:25:07Z</time>
      </trkpt>
      <trkpt lat="56.836934842338" lon="14.786368052071">
        <ele>172.8</ele>
        <time>2019-11-21T18:25:08Z</time>
      </trkpt>
      <trkpt lat="56.836906511516" lon="14.78632035906">
        <ele>173.2</ele>
        <time>2019-11-21T18:25:10Z</time>
      </trkpt>
      <trkpt lat="56.836899219263" lon="14.786307115658">
        <ele>173.4</ele>
        <time>2019-11-21T18:25:11Z</time>
      </trkpt>
      <trkpt lat="56.836892262286" lon="14.786291776781">
        <ele>173.8</ele>
        <time>2019-11-21T18:25:12Z</time>
      </trkpt>
      <trkpt lat="56.836858567048" lon="14.786229247807">
        <ele>174.6</ele>
        <time>2019-11-21T18:25:15Z</time>
      </trkpt>
      <trkpt lat="56.836853118813" lon="14.786211813455">
        <ele>174.8</ele>
        <time>2019-11-21T18:25:16Z</time>
      </trkpt>
      <trkpt lat="56.836832834615" lon="14.78612506079">
        <ele>175.6</ele>
        <time>2019-11-21T18:25:20Z</time>
      </trkpt>
      <trkpt lat="56.836759073895" lon="14.785984915422">
        <ele>176.2</ele>
        <time>2019-11-21T18:25:26Z</time>
      </trkpt>
      <trkpt lat="56.836753877117" lon="14.785913166358">
        <ele>176.4</ele>
        <time>2019-11-21T18:25:30Z</time>
      </trkpt>
      <trkpt lat="56.836750691995" lon="14.785878297654">
        <ele>176.4</ele>
        <time>2019-11-21T18:25:31Z</time>
      </trkpt>
      <trkpt lat="56.836750021443" lon="14.785786851125">
        <ele>176</ele>
        <time>2019-11-21T18:25:35Z</time>
      </trkpt>
      <trkpt lat="56.836739544068" lon="14.785752317697">
        <ele>175.6</ele>
        <time>2019-11-21T18:25:39Z</time>
      </trkpt>
      <trkpt lat="56.836723367001" lon="14.785736559725">
        <ele>175.6</ele>
        <time>2019-11-21T18:25:41Z</time>
      </trkpt>
      <trkpt lat="56.836700568233" lon="14.785715102061">
        <ele>175.6</ele>
        <time>2019-11-21T18:25:43Z</time>
      </trkpt>
      <trkpt lat="56.83669830512" lon="14.785666906136">
        <ele>176.2</ele>
        <time>2019-11-21T18:25:47Z</time>
      </trkpt>
      <trkpt lat="56.836706603201" lon="14.785660368254">
        <ele>176</ele>
        <time>2019-11-21T18:25:51Z</time>
      </trkpt>
      <trkpt lat="56.836709620685" lon="14.785616614736">
        <ele>174.6</ele>
        <time>2019-11-21T18:25:57Z</time>
      </trkpt>
      <trkpt lat="56.836748512701" lon="14.785623152618">
        <ele>173.6</ele>
        <time>2019-11-21T18:26:01Z</time>
      </trkpt>
      <trkpt lat="56.836754380031" lon="14.785628097939">
        <ele>173.4</ele>
        <time>2019-11-21T18:26:02Z</time>
      </trkpt>
      <trkpt lat="56.836737280955" lon="14.785567496802">
        <ele>172.8</ele>
        <time>2019-11-21T18:26:11Z</time>
      </trkpt>
      <trkpt lat="56.836726384485" lon="14.785503291448">
        <ele>174</ele>
        <time>2019-11-21T18:26:22Z</time>
      </trkpt>
      <trkpt lat="56.836718170223" lon="14.785625751007">
        <ele>174.6</ele>
        <time>2019-11-21T18:26:33Z</time>
      </trkpt>
      <trkpt lat="56.836708782495" lon="14.785666067946">
        <ele>175</ele>
        <time>2019-11-21T18:26:34Z</time>
      </trkpt>
      <trkpt lat="56.836696461102" lon="14.785702361573">
        <ele>175.8</ele>
        <time>2019-11-21T18:26:35Z</time>
      </trkpt>
      <trkpt lat="56.836645331512" lon="14.785766902203">
        <ele>174.6</ele>
        <time>2019-11-21T18:26:38Z</time>
      </trkpt>
      <trkpt lat="56.836619599079" lon="14.785814427576">
        <ele>174.6</ele>
        <time>2019-11-21T18:26:40Z</time>
      </trkpt>
      <trkpt lat="56.836468892517" lon="14.786016263728">
        <ele>174.4</ele>
        <time>2019-11-21T18:26:49Z</time>
      </trkpt>
      <trkpt lat="56.83645355364" lon="14.786038643401">
        <ele>174</ele>
        <time>2019-11-21T18:26:50Z</time>
      </trkpt>
      <trkpt lat="56.836434023813" lon="14.786059095237">
        <ele>173.4</ele>
        <time>2019-11-21T18:26:51Z</time>
      </trkpt>
      <trkpt lat="56.83626915184" lon="14.786030596777">
        <ele>172.2</ele>
        <time>2019-11-21T18:26:59Z</time>
      </trkpt>
      <trkpt lat="56.836171418886" lon="14.785986005069">
        <ele>171</ele>
        <time>2019-11-21T18:27:02Z</time>
      </trkpt>
      <trkpt lat="56.836091204103" lon="14.78586689827">
        <ele>169.8</ele>
        <time>2019-11-21T18:27:05Z</time>
      </trkpt>
      <trkpt lat="56.835934630211" lon="14.785670594172">
        <ele>169.6</ele>
        <time>2019-11-21T18:27:10Z</time>
      </trkpt>
      <trkpt lat="56.835768417134" lon="14.785498429946">
        <ele>170</ele>
        <time>2019-11-21T18:27:14Z</time>
      </trkpt>
      <trkpt lat="56.835621733884" lon="14.78537236617">
        <ele>168.8</ele>
        <time>2019-11-21T18:27:18Z</time>
      </trkpt>
      <trkpt lat="56.835531460821" lon="14.785308999006">
        <ele>167.6</ele>
        <time>2019-11-21T18:27:21Z</time>
      </trkpt>
      <trkpt lat="56.835390225806" lon="14.785240183607">
        <ele>166.4</ele>
        <time>2019-11-21T18:27:24Z</time>
      </trkpt>
      <trkpt lat="56.83525661832" lon="14.785183689601">
        <ele>166.2</ele>
        <time>2019-11-21T18:27:27Z</time>
      </trkpt>
      <trkpt lat="56.835074814909" lon="14.78510833632">
        <ele>166.8</ele>
        <time>2019-11-21T18:27:31Z</time>
      </trkpt>
      <trkpt lat="56.83488781472" lon="14.784945895098">
        <ele>166.6</ele>
        <time>2019-11-21T18:27:36Z</time>
      </trkpt>
      <trkpt lat="56.834826459212" lon="14.784870038903">
        <ele>166.6</ele>
        <time>2019-11-21T18:27:38Z</time>
      </trkpt>
      <trkpt lat="56.834769043197" lon="14.784797619287">
        <ele>166.4</ele>
        <time>2019-11-21T18:27:40Z</time>
      </trkpt>
      <trkpt lat="56.834618252816" lon="14.784603326845">
        <ele>166.6</ele>
        <time>2019-11-21T18:27:46Z</time>
      </trkpt>
      <trkpt lat="56.834505264804" lon="14.784357485718">
        <ele>166.6</ele>
        <time>2019-11-21T18:27:54Z</time>
      </trkpt>
      <trkpt lat="56.834545917019" lon="14.784009301592">
        <ele>166.6</ele>
        <time>2019-11-21T18:28:02Z</time>
      </trkpt>
      <trkpt lat="56.83449637999" lon="14.78366664952">
        <ele>167.4</ele>
        <time>2019-11-21T18:28:07Z</time>
      </trkpt>
      <trkpt lat="56.834460589277" lon="14.783317459566">
        <ele>166.8</ele>
        <time>2019-11-21T18:28:14Z</time>
      </trkpt>
      <trkpt lat="56.834419434148" lon="14.783202962812">
        <ele>167.2</ele>
        <time>2019-11-21T18:28:17Z</time>
      </trkpt>
      <trkpt lat="56.83440753185" lon="14.783148564281">
        <ele>167.8</ele>
        <time>2019-11-21T18:28:20Z</time>
      </trkpt>
      <trkpt lat="56.834388002023" lon="14.783103637297">
        <ele>168.2</ele>
        <time>2019-11-21T18:28:23Z</time>
      </trkpt>
      <trkpt lat="56.834381045046" lon="14.783064745281">
        <ele>168.2</ele>
        <time>2019-11-21T18:28:26Z</time>
      </trkpt>
      <trkpt lat="56.834385571272" lon="14.782934155279">
        <ele>168.4</ele>
        <time>2019-11-21T18:28:34Z</time>
      </trkpt>
      <trkpt lat="56.834377859924" lon="14.782909596312">
        <ele>168.6</ele>
        <time>2019-11-21T18:28:35Z</time>
      </trkpt>
      <trkpt lat="56.834363275418" lon="14.782858047627">
        <ele>169.4</ele>
        <time>2019-11-21T18:28:37Z</time>
      </trkpt>
      <trkpt lat="56.834348607093" lon="14.782840445637">
        <ele>169.8</ele>
        <time>2019-11-21T18:28:39Z</time>
      </trkpt>
      <trkpt lat="56.834342069211" lon="14.782822843647">
        <ele>170</ele>
        <time>2019-11-21T18:28:40Z</time>
      </trkpt>
      <trkpt lat="56.834311307638" lon="14.782686553953">
        <ele>170</ele>
        <time>2019-11-21T18:28:44Z</time>
      </trkpt>
      <trkpt lat="56.834248108112" lon="14.782554455209">
        <ele>171.2</ele>
        <time>2019-11-21T18:28:50Z</time>
      </trkpt>
      <trkpt lat="56.834201923843" lon="14.782476335901">
        <ele>172</ele>
        <time>2019-11-21T18:28:54Z</time>
      </trkpt>
      <trkpt lat="56.834158170325" lon="14.782384637915">
        <ele>172.4</ele>
        <time>2019-11-21T18:28:59Z</time>
      </trkpt>
      <trkpt lat="56.83411751811" lon="14.78230123801">
        <ele>172.8</ele>
        <time>2019-11-21T18:29:02Z</time>
      </trkpt>
      <trkpt lat="56.834059347724" lon="14.782212725146">
        <ele>172.6</ele>
        <time>2019-11-21T18:29:06Z</time>
      </trkpt>
      <trkpt lat="56.833973684706" lon="14.781869486341">
        <ele>172.4</ele>
        <time>2019-11-21T18:29:13Z</time>
      </trkpt>
      <trkpt lat="56.833968655566" lon="14.781818524389">
        <ele>172</ele>
        <time>2019-11-21T18:29:14Z</time>
      </trkpt>
      <trkpt lat="56.833947533178" lon="14.781535467626">
        <ele>171.2</ele>
        <time>2019-11-21T18:29:21Z</time>
      </trkpt>
      <trkpt lat="56.833946275893" lon="14.781506298614">
        <ele>170.8</ele>
        <time>2019-11-21T18:29:22Z</time>
      </trkpt>
      <trkpt lat="56.833937893993" lon="14.781442763812">
        <ele>170.2</ele>
        <time>2019-11-21T18:29:24Z</time>
      </trkpt>
      <trkpt lat="56.833927500437" lon="14.78142281489">
        <ele>170</ele>
        <time>2019-11-21T18:29:25Z</time>
      </trkpt>
      <trkpt lat="56.833829935121" lon="14.781268755568">
        <ele>169</ele>
        <time>2019-11-21T18:29:31Z</time>
      </trkpt>
      <trkpt lat="56.833662129483" lon="14.78106909871">
        <ele>168.6</ele>
        <time>2019-11-21T18:29:39Z</time>
      </trkpt>
      <trkpt lat="56.833614939386" lon="14.781024926097">
        <ele>168.2</ele>
        <time>2019-11-21T18:29:41Z</time>
      </trkpt>
      <trkpt lat="56.8335902966" lon="14.781012604704">
        <ele>167.8</ele>
        <time>2019-11-21T18:29:42Z</time>
      </trkpt>
      <trkpt lat="56.833551404584" lon="14.780993913067">
        <ele>167.2</ele>
        <time>2019-11-21T18:29:44Z</time>
      </trkpt>
      <trkpt lat="56.833532629128" lon="14.78098025057">
        <ele>167</ele>
        <time>2019-11-21T18:29:46Z</time>
      </trkpt>
      <trkpt lat="56.833511171464" lon="14.780977652181">
        <ele>166.8</ele>
        <time>2019-11-21T18:29:48Z</time>
      </trkpt>
      <trkpt lat="56.833484265565" lon="14.78097186867">
        <ele>166.8</ele>
        <time>2019-11-21T18:29:51Z</time>
      </trkpt>
      <trkpt lat="56.833443026617" lon="14.780952255024">
        <ele>166.8</ele>
        <time>2019-11-21T18:29:55Z</time>
      </trkpt>
      <trkpt lat="56.833437159287" lon="14.780937251423">
        <ele>166.8</ele>
        <time>2019-11-21T18:29:56Z</time>
      </trkpt>
      <trkpt lat="56.833359878169" lon="14.780865669997">
        <ele>166.8</ele>
        <time>2019-11-21T18:30:04Z</time>
      </trkpt>
      <trkpt lat="56.833350238984" lon="14.780854354432">
        <ele>166.8</ele>
        <time>2019-11-21T18:30:05Z</time>
      </trkpt>
      <trkpt lat="56.833321991981" lon="14.780806661421">
        <ele>167</ele>
        <time>2019-11-21T18:30:08Z</time>
      </trkpt>
      <trkpt lat="56.833306653104" lon="14.780799285349">
        <ele>167</ele>
        <time>2019-11-21T18:30:11Z</time>
      </trkpt>
      <trkpt lat="56.833258457179" lon="14.780703731689">
        <ele>167.4</ele>
        <time>2019-11-21T18:30:16Z</time>
      </trkpt>
      <trkpt lat="56.833208584874" lon="14.780642376181">
        <ele>167.4</ele>
        <time>2019-11-21T18:30:20Z</time>
      </trkpt>
      <trkpt lat="56.833177739482" lon="14.78059049222">
        <ele>167.4</ele>
        <time>2019-11-21T18:30:22Z</time>
      </trkpt>
      <trkpt lat="56.833125520245" lon="14.780601221052">
        <ele>167.2</ele>
        <time>2019-11-21T18:30:26Z</time>
      </trkpt>
      <trkpt lat="56.833113282671" lon="14.780612368979">
        <ele>167</ele>
        <time>2019-11-21T18:30:27Z</time>
      </trkpt>
      <trkpt lat="56.833089310437" lon="14.780663330931">
        <ele>166.6</ele>
        <time>2019-11-21T18:30:29Z</time>
      </trkpt>
      <trkpt lat="56.83294908125" lon="14.780891653887">
        <ele>167.4</ele>
        <time>2019-11-21T18:30:38Z</time>
      </trkpt>
      <trkpt lat="56.832929719061" lon="14.780941023278">
        <ele>167.4</ele>
        <time>2019-11-21T18:30:40Z</time>
      </trkpt>
      <trkpt lat="56.832924857559" lon="14.781035487291">
        <ele>167.6</ele>
        <time>2019-11-21T18:30:44Z</time>
      </trkpt>
      <trkpt lat="56.832895269452" lon="14.781141937421">
        <ele>167.8</ele>
        <time>2019-11-21T18:30:47Z</time>
      </trkpt>
      <trkpt lat="56.832888899208" lon="14.781211758648">
        <ele>167.8</ele>
        <time>2019-11-21T18:30:49Z</time>
      </trkpt>
      <trkpt lat="56.832880098213" lon="14.781280406409">
        <ele>168.2</ele>
        <time>2019-11-21T18:30:51Z</time>
      </trkpt>
      <trkpt lat="56.832816479592" lon="14.781401273407">
        <ele>168.4</ele>
        <time>2019-11-21T18:30:56Z</time>
      </trkpt>
      <trkpt lat="56.832694020033" lon="14.781557679661">
        <ele>169.2</ele>
        <time>2019-11-21T18:31:02Z</time>
      </trkpt>
      <trkpt lat="56.832668874333" lon="14.781587770682">
        <ele>169.2</ele>
        <time>2019-11-21T18:31:03Z</time>
      </trkpt>
      <trkpt lat="56.832578182175" lon="14.781781224934">
        <ele>169.6</ele>
        <time>2019-11-21T18:31:08Z</time>
      </trkpt>
      <trkpt lat="56.832501823066" lon="14.781918101361">
        <ele>169.6</ele>
        <time>2019-11-21T18:31:13Z</time>
      </trkpt>
      <trkpt lat="56.832434684047" lon="14.78202714988">
        <ele>170.4</ele>
        <time>2019-11-21T18:31:17Z</time>
      </trkpt>
      <trkpt lat="56.832251288075" lon="14.782151956371">
        <ele>169.6</ele>
        <time>2019-11-21T18:31:24Z</time>
      </trkpt>
      <trkpt lat="56.832197392458" lon="14.78223753557">
        <ele>169.6</ele>
        <time>2019-11-21T18:31:26Z</time>
      </trkpt>
      <trkpt lat="56.832059007289" lon="14.782456135522">
        <ele>170.2</ele>
        <time>2019-11-21T18:31:34Z</time>
      </trkpt>
      <trkpt lat="56.831973092814" lon="14.782597789632">
        <ele>170.4</ele>
        <time>2019-11-21T18:31:44Z</time>
      </trkpt>
      <trkpt lat="56.831969572416" lon="14.782603573143">
        <ele>170.4</ele>
        <time>2019-11-21T18:31:45Z</time>
      </trkpt>
      <trkpt lat="56.831989437519" lon="14.782682446822">
        <ele>170.2</ele>
        <time>2019-11-21T18:31:51Z</time>
      </trkpt>
      <trkpt lat="56.831996394496" lon="14.782697198966">
        <ele>170.2</ele>
        <time>2019-11-21T18:31:52Z</time>
      </trkpt>
      <trkpt lat="56.832002513283" lon="14.782724188684">
        <ele>170.4</ele>
        <time>2019-11-21T18:31:54Z</time>
      </trkpt>
      <trkpt lat="56.832000417808" lon="14.78271027473">
        <ele>170.4</ele>
        <time>2019-11-21T18:31:57Z</time>
      </trkpt>
      <trkpt lat="56.83194660601" lon="14.782679345519">
        <ele>169.8</ele>
        <time>2019-11-21T18:32:03Z</time>
      </trkpt>
      <trkpt lat="56.831931267133" lon="14.782661827348">
        <ele>169.6</ele>
        <time>2019-11-21T18:32:05Z</time>
      </trkpt>
      <trkpt lat="56.831887178339" lon="14.78261639745">
        <ele>169.6</ele>
        <time>2019-11-21T18:32:08Z</time>
      </trkpt>
      <trkpt lat="56.831853734558" lon="14.782586976981">
        <ele>169.6</ele>
        <time>2019-11-21T18:32:11Z</time>
      </trkpt>
      <trkpt lat="56.831806376823" lon="14.782515060279">
        <ele>170</ele>
        <time>2019-11-21T18:32:15Z</time>
      </trkpt>
      <trkpt lat="56.831760192554" lon="14.782420512447">
        <ele>170.6</ele>
        <time>2019-11-21T18:32:20Z</time>
      </trkpt>
      <trkpt lat="56.831748374075" lon="14.782396121118">
        <ele>170.6</ele>
        <time>2019-11-21T18:32:22Z</time>
      </trkpt>
      <trkpt lat="56.831741668555" lon="14.782280786174">
        <ele>169.8</ele>
        <time>2019-11-21T18:32:28Z</time>
      </trkpt>
      <trkpt lat="56.831703363272" lon="14.782148603611">
        <ele>170</ele>
        <time>2019-11-21T18:32:32Z</time>
      </trkpt>
      <trkpt lat="56.831663716885" lon="14.782085655542">
        <ele>170.4</ele>
        <time>2019-11-21T18:32:35Z</time>
      </trkpt>
      <trkpt lat="56.831605714137" lon="14.782010888994">
        <ele>170.4</ele>
        <time>2019-11-21T18:32:38Z</time>
      </trkpt>
      <trkpt lat="56.831580987532" lon="14.781979708326">
        <ele>170.2</ele>
        <time>2019-11-21T18:32:40Z</time>
      </trkpt>
      <trkpt lat="56.831559278411" lon="14.781947186554">
        <ele>170.2</ele>
        <time>2019-11-21T18:32:42Z</time>
      </trkpt>
      <trkpt lat="56.831523487698" lon="14.781909635642">
        <ele>170.2</ele>
        <time>2019-11-21T18:32:44Z</time>
      </trkpt>
      <trkpt lat="56.831499766921" lon="14.781864121925">
        <ele>170.6</ele>
        <time>2019-11-21T18:32:46Z</time>
      </trkpt>
      <trkpt lat="56.831446458037" lon="14.781831935429">
        <ele>171</ele>
        <time>2019-11-21T18:32:48Z</time>
      </trkpt>
      <trkpt lat="56.831395747542" lon="14.781787008445">
        <ele>171</ele>
        <time>2019-11-21T18:32:50Z</time>
      </trkpt>
      <trkpt lat="56.83131796351" lon="14.781726910222">
        <ele>170.8</ele>
        <time>2019-11-21T18:32:56Z</time>
      </trkpt>
      <trkpt lat="56.831276221648" lon="14.781628590535">
        <ele>170</ele>
        <time>2019-11-21T18:33:06Z</time>
      </trkpt>
      <trkpt lat="56.831225678791" lon="14.781582825361">
        <ele>170</ele>
        <time>2019-11-21T18:33:09Z</time>
      </trkpt>
      <trkpt lat="56.831223750954" lon="14.781476039955">
        <ele>169.6</ele>
        <time>2019-11-21T18:33:15Z</time>
      </trkpt>
      <trkpt lat="56.83123665908" lon="14.78139096367">
        <ele>169.4</ele>
        <time>2019-11-21T18:33:19Z</time>
      </trkpt>
      <trkpt lat="56.831229869741" lon="14.78130379191">
        <ele>169.4</ele>
        <time>2019-11-21T18:33:22Z</time>
      </trkpt>
      <trkpt lat="56.8312182189" lon="14.781182841093">
        <ele>169.8</ele>
        <time>2019-11-21T18:33:26Z</time>
      </trkpt>
      <trkpt lat="56.83121318976" lon="14.781145374">
        <ele>170</ele>
        <time>2019-11-21T18:33:27Z</time>
      </trkpt>
      <trkpt lat="56.83119810234" lon="14.780996259999">
        <ele>170.8</ele>
        <time>2019-11-21T18:33:33Z</time>
      </trkpt>
      <trkpt lat="56.831164071826" lon="14.780930629722">
        <ele>170.4</ele>
        <time>2019-11-21T18:33:36Z</time>
      </trkpt>
      <trkpt lat="56.831144793456" lon="14.780825604515">
        <ele>170.2</ele>
        <time>2019-11-21T18:33:40Z</time>
      </trkpt>
      <trkpt lat="56.83113691447" lon="14.780747149931">
        <ele>170.6</ele>
        <time>2019-11-21T18:33:44Z</time>
      </trkpt>
      <trkpt lat="56.83113356171" lon="14.780702558223">
        <ele>170.8</ele>
        <time>2019-11-21T18:33:46Z</time>
      </trkpt>
      <trkpt lat="56.831066674148" lon="14.780584121976">
        <ele>170.6</ele>
        <time>2019-11-21T18:33:52Z</time>
      </trkpt>
      <trkpt lat="56.830987213736" lon="14.780520251898">
        <ele>170.8</ele>
        <time>2019-11-21T18:33:57Z</time>
      </trkpt>
      <trkpt lat="56.830916638138" lon="14.780480270235">
        <ele>170.2</ele>
        <time>2019-11-21T18:34:04Z</time>
      </trkpt>
      <trkpt lat="56.830891576257" lon="14.780471050145">
        <ele>170</ele>
        <time>2019-11-21T18:34:06Z</time>
      </trkpt>
      <trkpt lat="56.830862658702" lon="14.780471217783">
        <ele>170</ele>
        <time>2019-11-21T18:34:08Z</time>
      </trkpt>
      <trkpt lat="56.830783030652" lon="14.780476749837">
        <ele>171</ele>
        <time>2019-11-21T18:34:13Z</time>
      </trkpt>
      <trkpt lat="56.830764590472" lon="14.78049745313">
        <ele>171.2</ele>
        <time>2019-11-21T18:34:15Z</time>
      </trkpt>
      <trkpt lat="56.830735337641" lon="14.780504326288">
        <ele>171.4</ele>
        <time>2019-11-21T18:34:17Z</time>
      </trkpt>
      <trkpt lat="56.830693931055" lon="14.780591581867">
        <ele>172</ele>
        <time>2019-11-21T18:34:23Z</time>
      </trkpt>
      <trkpt lat="56.83063232409" lon="14.780637849955">
        <ele>172.2</ele>
        <time>2019-11-21T18:34:27Z</time>
      </trkpt>
      <trkpt lat="56.830579266663" lon="14.780719238204">
        <ele>172.6</ele>
        <time>2019-11-21T18:34:31Z</time>
      </trkpt>
      <trkpt lat="56.830569292202" lon="14.780738768031">
        <ele>172.6</ele>
        <time>2019-11-21T18:34:32Z</time>
      </trkpt>
      <trkpt lat="56.830542134846" lon="14.780769194328">
        <ele>172.8</ele>
        <time>2019-11-21T18:34:34Z</time>
      </trkpt>
      <trkpt lat="56.830486059935" lon="14.78081596533">
        <ele>173.2</ele>
        <time>2019-11-21T18:34:40Z</time>
      </trkpt>
      <trkpt lat="56.830442474055" lon="14.780840775754">
        <ele>173.2</ele>
        <time>2019-11-21T18:34:43Z</time>
      </trkpt>
      <trkpt lat="56.830377262873" lon="14.78090984261">
        <ele>172.6</ele>
        <time>2019-11-21T18:34:47Z</time>
      </trkpt>
      <trkpt lat="56.830351614259" lon="14.780944040762">
        <ele>171.4</ele>
        <time>2019-11-21T18:34:52Z</time>
      </trkpt>
      <trkpt lat="56.830327642025" lon="14.781028446495">
        <ele>171</ele>
        <time>2019-11-21T18:35:00Z</time>
      </trkpt>
      <trkpt lat="56.830328731672" lon="14.781050909987">
        <ele>171</ele>
        <time>2019-11-21T18:35:02Z</time>
      </trkpt>
      <trkpt lat="56.830330994785" lon="14.781107320174">
        <ele>171.4</ele>
        <time>2019-11-21T18:35:05Z</time>
      </trkpt>
      <trkpt lat="56.830343316178" lon="14.781163227447">
        <ele>171.8</ele>
        <time>2019-11-21T18:35:08Z</time>
      </trkpt>
      <trkpt lat="56.83035572139" lon="14.781246292076">
        <ele>172.2</ele>
        <time>2019-11-21T18:35:11Z</time>
      </trkpt>
      <trkpt lat="56.830354547924" lon="14.781333631474">
        <ele>171.4</ele>
        <time>2019-11-21T18:35:16Z</time>
      </trkpt>
      <trkpt lat="56.830351865716" lon="14.781403117425">
        <ele>171</ele>
        <time>2019-11-21T18:35:19Z</time>
      </trkpt>
      <trkpt lat="56.830369300068" lon="14.781476878145">
        <ele>171</ele>
        <time>2019-11-21T18:35:21Z</time>
      </trkpt>
      <trkpt lat="56.830384806583" lon="14.781505460424">
        <ele>171</ele>
        <time>2019-11-21T18:35:23Z</time>
      </trkpt>
      <trkpt lat="56.830394864863" lon="14.781566480656">
        <ele>171</ele>
        <time>2019-11-21T18:35:27Z</time>
      </trkpt>
      <trkpt lat="56.830393020845" lon="14.78158542375">
        <ele>171</ele>
        <time>2019-11-21T18:35:28Z</time>
      </trkpt>
      <trkpt lat="56.830386231506" lon="14.781655077339">
        <ele>171</ele>
        <time>2019-11-21T18:35:31Z</time>
      </trkpt>
      <trkpt lat="56.830384974221" lon="14.781739147796">
        <ele>170.8</ele>
        <time>2019-11-21T18:35:34Z</time>
      </trkpt>
      <trkpt lat="56.830374915941" lon="14.781803101693">
        <ele>171</ele>
        <time>2019-11-21T18:35:37Z</time>
      </trkpt>
      <trkpt lat="56.830341975074" lon="14.781872168549">
        <ele>171</ele>
        <time>2019-11-21T18:35:43Z</time>
      </trkpt>
      <trkpt lat="56.830316410279" lon="14.781879544621">
        <ele>171</ele>
        <time>2019-11-21T18:35:45Z</time>
      </trkpt>
      <trkpt lat="56.830197219661" lon="14.781897481887">
        <ele>170.6</ele>
        <time>2019-11-21T18:35:51Z</time>
      </trkpt>
      <trkpt lat="56.830100408716" lon="14.781879209345">
        <ele>171.2</ele>
        <time>2019-11-21T18:35:55Z</time>
      </trkpt>
      <trkpt lat="56.830054643542" lon="14.781907372529">
        <ele>171.6</ele>
        <time>2019-11-21T18:35:58Z</time>
      </trkpt>
      <trkpt lat="56.82988298223" lon="14.782038130169">
        <ele>170.6</ele>
        <time>2019-11-21T18:36:08Z</time>
      </trkpt>
      <trkpt lat="56.829861776023" lon="14.782076854547">
        <ele>170.4</ele>
        <time>2019-11-21T18:36:10Z</time>
      </trkpt>
      <trkpt lat="56.829854064675" lon="14.782087583379">
        <ele>170.4</ele>
        <time>2019-11-21T18:36:11Z</time>
      </trkpt>
      <trkpt lat="56.829842162377" lon="14.782102000247">
        <ele>170.4</ele>
        <time>2019-11-21T18:36:13Z</time>
      </trkpt>
      <trkpt lat="56.829829002794" lon="14.782165032135">
        <ele>170.4</ele>
        <time>2019-11-21T18:36:16Z</time>
      </trkpt>
      <trkpt lat="56.829844090214" lon="14.782231500602">
        <ele>170.6</ele>
        <time>2019-11-21T18:36:20Z</time>
      </trkpt>
      <trkpt lat="56.829829505708" lon="14.782290173902">
        <ele>170.4</ele>
        <time>2019-11-21T18:36:24Z</time>
      </trkpt>
      <trkpt lat="56.829838725798" lon="14.782325210244">
        <ele>170.2</ele>
        <time>2019-11-21T18:36:26Z</time>
      </trkpt>
      <trkpt lat="56.829837384694" lon="14.782363096432">
        <ele>170.2</ele>
        <time>2019-11-21T18:36:28Z</time>
      </trkpt>
      <trkpt lat="56.829821039989" lon="14.782407604321">
        <ele>170.4</ele>
        <time>2019-11-21T18:36:30Z</time>
      </trkpt>
      <trkpt lat="56.829776699738" lon="14.782491926235">
        <ele>171.2</ele>
        <time>2019-11-21T18:36:33Z</time>
      </trkpt>
      <trkpt lat="56.829716098601" lon="14.782619079658">
        <ele>170.6</ele>
        <time>2019-11-21T18:36:38Z</time>
      </trkpt>
      <trkpt lat="56.829692629281" lon="14.782690241989">
        <ele>170.4</ele>
        <time>2019-11-21T18:36:42Z</time>
      </trkpt>
      <trkpt lat="56.829675278748" lon="14.782727960539">
        <ele>170.4</ele>
        <time>2019-11-21T18:36:44Z</time>
      </trkpt>
      <trkpt lat="56.829630603221" lon="14.782833907755">
        <ele>170.4</ele>
        <time>2019-11-21T18:36:47Z</time>
      </trkpt>
      <trkpt lat="56.829558686519" lon="14.78302040503">
        <ele>171</ele>
        <time>2019-11-21T18:36:52Z</time>
      </trkpt>
      <trkpt lat="56.82951920777" lon="14.783051250422">
        <ele>171.2</ele>
        <time>2019-11-21T18:36:54Z</time>
      </trkpt>
      <trkpt lat="56.829472688225" lon="14.783210255065">
        <ele>171</ele>
        <time>2019-11-21T18:36:59Z</time>
      </trkpt>
      <trkpt lat="56.82945466714" lon="14.783298516472">
        <ele>171.2</ele>
        <time>2019-11-21T18:37:02Z</time>
      </trkpt>
      <trkpt lat="56.829428431793" lon="14.783391807019">
        <ele>171.6</ele>
        <time>2019-11-21T18:37:05Z</time>
      </trkpt>
      <trkpt lat="56.829396664392" lon="14.783492808914">
        <ele>171.6</ele>
        <time>2019-11-21T18:37:09Z</time>
      </trkpt>
      <trkpt lat="56.829377134565" lon="14.78354846473">
        <ele>172</ele>
        <time>2019-11-21T18:37:12Z</time>
      </trkpt>
      <trkpt lat="56.829355676901" lon="14.783591463877">
        <ele>172.4</ele>
        <time>2019-11-21T18:37:14Z</time>
      </trkpt>
      <trkpt lat="56.829336901445" lon="14.783611915713">
        <ele>172.6</ele>
        <time>2019-11-21T18:37:15Z</time>
      </trkpt>
      <trkpt lat="56.829317623075" lon="14.783622309269">
        <ele>172.8</ele>
        <time>2019-11-21T18:37:16Z</time>
      </trkpt>
      <trkpt lat="56.829241934518" lon="14.783709564848">
        <ele>173.4</ele>
        <time>2019-11-21T18:37:20Z</time>
      </trkpt>
      <trkpt lat="56.829222907605" lon="14.783729178494">
        <ele>173.8</ele>
        <time>2019-11-21T18:37:21Z</time>
      </trkpt>
      <trkpt lat="56.829190050557" lon="14.783768741062">
        <ele>174.8</ele>
        <time>2019-11-21T18:37:23Z</time>
      </trkpt>
      <trkpt lat="56.829145794125" lon="14.783786343052">
        <ele>175.6</ele>
        <time>2019-11-21T18:37:27Z</time>
      </trkpt>
      <trkpt lat="56.829123330633" lon="14.78384266942">
        <ele>175.6</ele>
        <time>2019-11-21T18:37:31Z</time>
      </trkpt>
      <trkpt lat="56.829213100782" lon="14.784014330732">
        <ele>174.2</ele>
        <time>2019-11-21T18:37:47Z</time>
      </trkpt>
      <trkpt lat="56.829242185975" lon="14.784058838621">
        <ele>174</ele>
        <time>2019-11-21T18:37:49Z</time>
      </trkpt>
      <trkpt lat="56.829281832362" lon="14.784133018436">
        <ele>173.8</ele>
        <time>2019-11-21T18:37:51Z</time>
      </trkpt>
      <trkpt lat="56.829291974461" lon="14.784158750869">
        <ele>173.8</ele>
        <time>2019-11-21T18:37:52Z</time>
      </trkpt>
      <trkpt lat="56.829337823454" lon="14.784288083586">
        <ele>173.4</ele>
        <time>2019-11-21T18:37:56Z</time>
      </trkpt>
      <trkpt lat="56.829396077659" lon="14.784612546935">
        <ele>173.4</ele>
        <time>2019-11-21T18:38:05Z</time>
      </trkpt>
      <trkpt lat="56.829394736555" lon="14.784656803367">
        <ele>173.4</ele>
        <time>2019-11-21T18:38:06Z</time>
      </trkpt>
      <trkpt lat="56.829396915849" lon="14.78476384023">
        <ele>173.8</ele>
        <time>2019-11-21T18:38:09Z</time>
      </trkpt>
      <trkpt lat="56.829414601658" lon="14.784832655629">
        <ele>174.4</ele>
        <time>2019-11-21T18:38:12Z</time>
      </trkpt>
      <trkpt lat="56.829429353802" lon="14.784909769109">
        <ele>174.6</ele>
        <time>2019-11-21T18:38:14Z</time>
      </trkpt>
      <trkpt lat="56.829444525041" lon="14.784964000002">
        <ele>174.8</ele>
        <time>2019-11-21T18:38:16Z</time>
      </trkpt>
      <trkpt lat="56.829461037384" lon="14.785099451506">
        <ele>176.2</ele>
        <time>2019-11-21T18:38:20Z</time>
      </trkpt>
      <trkpt lat="56.829494984079" lon="14.785397428051">
        <ele>177.2</ele>
        <time>2019-11-21T18:38:28Z</time>
      </trkpt>
      <trkpt lat="56.82950579673" lon="14.785530029709">
        <ele>177.2</ele>
        <time>2019-11-21T18:38:31Z</time>
      </trkpt>
      <trkpt lat="56.82952675148" lon="14.785639664961">
        <ele>177.4</ele>
        <time>2019-11-21T18:38:34Z</time>
      </trkpt>
      <trkpt lat="56.829428096517" lon="14.78599514134">
        <ele>178.2</ele>
        <time>2019-11-21T18:38:42Z</time>
      </trkpt>
      <trkpt lat="56.829330279744" lon="14.786302505613">
        <ele>178.2</ele>
        <time>2019-11-21T18:38:49Z</time>
      </trkpt>
      <trkpt lat="56.829248640038" lon="14.786545329256">
        <ele>178.2</ele>
        <time>2019-11-21T18:38:57Z</time>
      </trkpt>
      <trkpt lat="56.829230367496" lon="14.786617245958">
        <ele>178.4</ele>
        <time>2019-11-21T18:38:59Z</time>
      </trkpt>
      <trkpt lat="56.829332459038" lon="14.786877671591">
        <ele>179.6</ele>
        <time>2019-11-21T18:39:09Z</time>
      </trkpt>
      <trkpt lat="56.82950998768" lon="14.78707389187">
        <ele>180.4</ele>
        <time>2019-11-21T18:39:15Z</time>
      </trkpt>
      <trkpt lat="56.82957285193" lon="14.78715938725">
        <ele>180.6</ele>
        <time>2019-11-21T18:39:18Z</time>
      </trkpt>
      <trkpt lat="56.829637895474" lon="14.787272375262">
        <ele>181.6</ele>
        <time>2019-11-21T18:39:22Z</time>
      </trkpt>
      <trkpt lat="56.829701849371" lon="14.787354601701">
        <ele>183</ele>
        <time>2019-11-21T18:39:26Z</time>
      </trkpt>
      <trkpt lat="56.829735376971" lon="14.787401372703">
        <ele>184.2</ele>
        <time>2019-11-21T18:39:28Z</time>
      </trkpt>
      <trkpt lat="56.829792206253" lon="14.787446383506">
        <ele>185.2</ele>
        <time>2019-11-21T18:39:31Z</time>
      </trkpt>
      <trkpt lat="56.829816597582" lon="14.787456190329">
        <ele>185.2</ele>
        <time>2019-11-21T18:39:32Z</time>
      </trkpt>
      <trkpt lat="56.829840905092" lon="14.787469601369">
        <ele>185.4</ele>
        <time>2019-11-21T18:39:33Z</time>
      </trkpt>
      <trkpt lat="56.829969231981" lon="14.787559874432">
        <ele>186.4</ele>
        <time>2019-11-21T18:39:38Z</time>
      </trkpt>
      <trkpt lat="56.830091942997" lon="14.787801608428">
        <ele>186.4</ele>
        <time>2019-11-21T18:39:43Z</time>
      </trkpt>
      <trkpt lat="56.830103174743" lon="14.787847708878">
        <ele>186.4</ele>
        <time>2019-11-21T18:39:44Z</time>
      </trkpt>
      <trkpt lat="56.83018556882" lon="14.788158342092">
        <ele>186.4</ele>
        <time>2019-11-21T18:39:55Z</time>
      </trkpt>
      <trkpt lat="56.830218090592" lon="14.788292284854">
        <ele>186.2</ele>
        <time>2019-11-21T18:40:00Z</time>
      </trkpt>
      <trkpt lat="56.830243320111" lon="14.788312233776">
        <ele>186.2</ele>
        <time>2019-11-21T18:40:03Z</time>
      </trkpt>
      <trkpt lat="56.830288330914" lon="14.788324219893">
        <ele>186</ele>
        <time>2019-11-21T18:40:07Z</time>
      </trkpt>
      <trkpt lat="56.830311129682" lon="14.788311647043">
        <ele>185.6</ele>
        <time>2019-11-21T18:40:09Z</time>
      </trkpt>
      <trkpt lat="56.830323367256" lon="14.788304857704">
        <ele>185.2</ele>
        <time>2019-11-21T18:40:10Z</time>
      </trkpt>
      <trkpt lat="56.830333341717" lon="14.788298319822">
        <ele>185</ele>
        <time>2019-11-21T18:40:11Z</time>
      </trkpt>
      <trkpt lat="56.830381202366" lon="14.788295302338">
        <ele>183.8</ele>
        <time>2019-11-21T18:40:14Z</time>
      </trkpt>
      <trkpt lat="56.830406431885" lon="14.788297565451">
        <ele>182.6</ele>
        <time>2019-11-21T18:40:16Z</time>
      </trkpt>
      <trkpt lat="56.830462674434" lon="14.788307456093">
        <ele>181.8</ele>
        <time>2019-11-21T18:40:20Z</time>
      </trkpt>
      <trkpt lat="56.830493855102" lon="14.78826495986">
        <ele>181.8</ele>
        <time>2019-11-21T18:40:23Z</time>
      </trkpt>
      <trkpt lat="56.830518078793" lon="14.788254147209">
        <ele>181.2</ele>
        <time>2019-11-21T18:40:25Z</time>
      </trkpt>
      <trkpt lat="56.830547583081" lon="14.788267642068">
        <ele>180.2</ele>
        <time>2019-11-21T18:40:27Z</time>
      </trkpt>
      <trkpt lat="56.830638359058" lon="14.788448020556">
        <ele>179.2</ele>
        <time>2019-11-21T18:40:34Z</time>
      </trkpt>
      <trkpt lat="56.830656296324" lon="14.788481464337">
        <ele>179</ele>
        <time>2019-11-21T18:40:35Z</time>
      </trkpt>
      <trkpt lat="56.830809098361" lon="14.788677852254">
        <ele>179.6</ele>
        <time>2019-11-21T18:40:43Z</time>
      </trkpt>
      <trkpt lat="56.83086366453" lon="14.788714564976">
        <ele>179.2</ele>
        <time>2019-11-21T18:40:48Z</time>
      </trkpt>
      <trkpt lat="56.830897108311" lon="14.788747002929">
        <ele>179</ele>
        <time>2019-11-21T18:40:51Z</time>
      </trkpt>
      <trkpt lat="56.830944801322" lon="14.788747254386">
        <ele>179</ele>
        <time>2019-11-21T18:40:54Z</time>
      </trkpt>
      <trkpt lat="56.830971623402" lon="14.788757564123">
        <ele>178.8</ele>
        <time>2019-11-21T18:40:56Z</time>
      </trkpt>
      <trkpt lat="56.830987213736" lon="14.788765443109">
        <ele>178.4</ele>
        <time>2019-11-21T18:40:59Z</time>
      </trkpt>
      <trkpt lat="56.830997188197" lon="14.788789247705">
        <ele>178</ele>
        <time>2019-11-21T18:41:01Z</time>
      </trkpt>
      <trkpt lat="56.831009174314" lon="14.788830319015">
        <ele>177.8</ele>
        <time>2019-11-21T18:41:04Z</time>
      </trkpt>
      <trkpt lat="56.830995595636" lon="14.78886845666">
        <ele>177.8</ele>
        <time>2019-11-21T18:41:07Z</time>
      </trkpt>
      <trkpt lat="56.830968857375" lon="14.788968871822">
        <ele>177.8</ele>
        <time>2019-11-21T18:41:11Z</time>
      </trkpt>
      <trkpt lat="56.830967432452" lon="14.789012457702">
        <ele>177.8</ele>
        <time>2019-11-21T18:41:12Z</time>
      </trkpt>
      <trkpt lat="56.830895264293" lon="14.789338094517">
        <ele>177.8</ele>
        <time>2019-11-21T18:41:20Z</time>
      </trkpt>
      <trkpt lat="56.830778252969" lon="14.789614529579">
        <ele>177</ele>
        <time>2019-11-21T18:41:29Z</time>
      </trkpt>
      <trkpt lat="56.830773475286" lon="14.789635987243">
        <ele>177</ele>
        <time>2019-11-21T18:41:30Z</time>
      </trkpt>
      <trkpt lat="56.830743468084" lon="14.789809576392">
        <ele>177</ele>
        <time>2019-11-21T18:41:34Z</time>
      </trkpt>
      <trkpt lat="56.830686722621" lon="14.789983752274">
        <ele>178</ele>
        <time>2019-11-21T18:41:38Z</time>
      </trkpt>
      <trkpt lat="56.830669875002" lon="14.790009736164">
        <ele>178</ele>
        <time>2019-11-21T18:41:39Z</time>
      </trkpt>
      <trkpt lat="56.830587397106" lon="14.790130603162">
        <ele>179.2</ele>
        <time>2019-11-21T18:41:44Z</time>
      </trkpt>
      <trkpt lat="56.830561497035" lon="14.790225067175">
        <ele>180.2</ele>
        <time>2019-11-21T18:41:46Z</time>
      </trkpt>
      <trkpt lat="56.830408694998" lon="14.790437464521">
        <ele>180.6</ele>
        <time>2019-11-21T18:41:53Z</time>
      </trkpt>
      <trkpt lat="56.830255809142" lon="14.790664865468">
        <ele>180.6</ele>
        <time>2019-11-21T18:42:01Z</time>
      </trkpt>
      <trkpt lat="56.830116082869" lon="14.790749438839">
        <ele>181.2</ele>
        <time>2019-11-21T18:42:07Z</time>
      </trkpt>
      <trkpt lat="56.830015500069" lon="14.790900145401">
        <ele>182.4</ele>
        <time>2019-11-21T18:42:13Z</time>
      </trkpt>
      <trkpt lat="56.829990102912" lon="14.790943479824">
        <ele>182.6</ele>
        <time>2019-11-21T18:42:17Z</time>
      </trkpt>
      <trkpt lat="56.829964789574" lon="14.790970469542">
        <ele>182.2</ele>
        <time>2019-11-21T18:42:20Z</time>
      </trkpt>
      <trkpt lat="56.829922880074" lon="14.791059652958">
        <ele>182</ele>
        <time>2019-11-21T18:42:23Z</time>
      </trkpt>
      <trkpt lat="56.829790362235" lon="14.791230978994">
        <ele>181.4</ele>
        <time>2019-11-21T18:42:29Z</time>
      </trkpt>
      <trkpt lat="56.829642673157" lon="14.791306164637">
        <ele>181.8</ele>
        <time>2019-11-21T18:42:39Z</time>
      </trkpt>
      <trkpt lat="56.829629429755" lon="14.79131094232">
        <ele>181.8</ele>
        <time>2019-11-21T18:42:41Z</time>
      </trkpt>
      <trkpt lat="56.829620125846" lon="14.791333992545">
        <ele>182.2</ele>
        <time>2019-11-21T18:42:43Z</time>
      </trkpt>
      <trkpt lat="56.829622137502" lon="14.791348241775">
        <ele>182.4</ele>
        <time>2019-11-21T18:42:45Z</time>
      </trkpt>
      <trkpt lat="56.829633704524" lon="14.791389313085">
        <ele>182.4</ele>
        <time>2019-11-21T18:42:49Z</time>
      </trkpt>
      <trkpt lat="56.829681229897" lon="14.791388391076">
        <ele>182.2</ele>
        <time>2019-11-21T18:42:58Z</time>
      </trkpt>
      <trkpt lat="56.829800252877" lon="14.791460726873">
        <ele>181.2</ele>
        <time>2019-11-21T18:43:06Z</time>
      </trkpt>
      <trkpt lat="56.829853058847" lon="14.791490482618">
        <ele>180.2</ele>
        <time>2019-11-21T18:43:09Z</time>
      </trkpt>
      <trkpt lat="56.829984235582" lon="14.791513365205">
        <ele>179.6</ele>
        <time>2019-11-21T18:43:17Z</time>
      </trkpt>
      <trkpt lat="56.82998775598" lon="14.791532727394">
        <ele>179.2</ele>
        <time>2019-11-21T18:43:20Z</time>
      </trkpt>
      <trkpt lat="56.830006363798" lon="14.791603638268">
        <ele>178.4</ele>
        <time>2019-11-21T18:43:25Z</time>
      </trkpt>
      <trkpt lat="56.830024803978" lon="14.79165962936">
        <ele>178.4</ele>
        <time>2019-11-21T18:43:27Z</time>
      </trkpt>
      <trkpt lat="56.830044417624" lon="14.791750070061">
        <ele>178</ele>
        <time>2019-11-21T18:43:29Z</time>
      </trkpt>
      <trkpt lat="56.830094289929" lon="14.791965149615">
        <ele>176.8</ele>
        <time>2019-11-21T18:43:33Z</time>
      </trkpt>
      <trkpt lat="56.830185401182" lon="14.792273603535">
        <ele>176.4</ele>
        <time>2019-11-21T18:43:43Z</time>
      </trkpt>
      <trkpt lat="56.830191771426" lon="14.792307382592">
        <ele>176.2</ele>
        <time>2019-11-21T18:43:44Z</time>
      </trkpt>
      <trkpt lat="56.830191771426" lon="14.792381059493">
        <ele>175.6</ele>
        <time>2019-11-21T18:43:47Z</time>
      </trkpt>
      <trkpt lat="56.830193866901" lon="14.792396230732">
        <ele>175.2</ele>
        <time>2019-11-21T18:43:48Z</time>
      </trkpt>
      <trkpt lat="56.830190765598" lon="14.792436044757">
        <ele>174.2</ele>
        <time>2019-11-21T18:43:50Z</time>
      </trkpt>
      <trkpt lat="56.830200488602" lon="14.792450713082">
        <ele>174</ele>
        <time>2019-11-21T18:43:51Z</time>
      </trkpt>
      <trkpt lat="56.830230579623" lon="14.792504105785">
        <ele>173.6</ele>
        <time>2019-11-21T18:43:54Z</time>
      </trkpt>
      <trkpt lat="56.830244158301" lon="14.792530341132">
        <ele>173</ele>
        <time>2019-11-21T18:43:56Z</time>
      </trkpt>
      <trkpt lat="56.830248684527" lon="14.792543416896">
        <ele>172.8</ele>
        <time>2019-11-21T18:43:57Z</time>
      </trkpt>
      <trkpt lat="56.830262263205" lon="14.792579039971">
        <ele>172.2</ele>
        <time>2019-11-21T18:43:59Z</time>
      </trkpt>
      <trkpt lat="56.830272656761" lon="14.792598821255">
        <ele>172</ele>
        <time>2019-11-21T18:44:00Z</time>
      </trkpt>
      <trkpt lat="56.830285816344" lon="14.792625643335">
        <ele>172</ele>
        <time>2019-11-21T18:44:01Z</time>
      </trkpt>
      <trkpt lat="56.83043283487" lon="14.79282638984">
        <ele>172.4</ele>
        <time>2019-11-21T18:44:09Z</time>
      </trkpt>
      <trkpt lat="56.830509864531" lon="14.792834268826">
        <ele>172.4</ele>
        <time>2019-11-21T18:44:15Z</time>
      </trkpt>
      <trkpt lat="56.830569962754" lon="14.792895372877">
        <ele>173</ele>
        <time>2019-11-21T18:44:18Z</time>
      </trkpt>
      <trkpt lat="56.830651853917" lon="14.792985310664">
        <ele>172.6</ele>
        <time>2019-11-21T18:44:22Z</time>
      </trkpt>
      <trkpt lat="56.830687476992" lon="14.793026298155">
        <ele>172</ele>
        <time>2019-11-21T18:44:24Z</time>
      </trkpt>
      <trkpt lat="56.83070440843" lon="14.793046414715">
        <ele>171.8</ele>
        <time>2019-11-21T18:44:25Z</time>
      </trkpt>
      <trkpt lat="56.830756040934" lon="14.793104920377">
        <ele>170.8</ele>
        <time>2019-11-21T18:44:28Z</time>
      </trkpt>
      <trkpt lat="56.830776828046" lon="14.793132580647">
        <ele>170.6</ele>
        <time>2019-11-21T18:44:29Z</time>
      </trkpt>
      <trkpt lat="56.830915380853" lon="14.793223021348">
        <ele>171.6</ele>
        <time>2019-11-21T18:44:36Z</time>
      </trkpt>
      <trkpt lat="56.830931893196" lon="14.793249256695">
        <ele>171.8</ele>
        <time>2019-11-21T18:44:37Z</time>
      </trkpt>
      <trkpt lat="56.830991991419" lon="14.793306085977">
        <ele>172.8</ele>
        <time>2019-11-21T18:44:40Z</time>
      </trkpt>
      <trkpt lat="56.831120066851" lon="14.793344139803">
        <ele>172.4</ele>
        <time>2019-11-21T18:44:47Z</time>
      </trkpt>
      <trkpt lat="56.831186200042" lon="14.793314300239">
        <ele>172.2</ele>
        <time>2019-11-21T18:44:51Z</time>
      </trkpt>
      <trkpt lat="56.831246884998" lon="14.793308516728">
        <ele>172</ele>
        <time>2019-11-21T18:44:54Z</time>
      </trkpt>
      <trkpt lat="56.831269013214" lon="14.793316395714">
        <ele>171.8</ele>
        <time>2019-11-21T18:44:56Z</time>
      </trkpt>
      <trkpt lat="56.831284016815" lon="14.793317401542">
        <ele>171.4</ele>
        <time>2019-11-21T18:44:58Z</time>
      </trkpt>
      <trkpt lat="56.831313688741" lon="14.793328633288">
        <ele>171.4</ele>
        <time>2019-11-21T18:45:00Z</time>
      </trkpt>
      <trkpt lat="56.83138166595" lon="14.793364675458">
        <ele>171.6</ele>
        <time>2019-11-21T18:45:03Z</time>
      </trkpt>
      <trkpt lat="56.831511836857" lon="14.793315641343">
        <ele>173</ele>
        <time>2019-11-21T18:45:08Z</time>
      </trkpt>
      <trkpt lat="56.831528768295" lon="14.793309271099">
        <ele>173.4</ele>
        <time>2019-11-21T18:45:09Z</time>
      </trkpt>
      <trkpt lat="56.831597416056" lon="14.793328968564">
        <ele>174</ele>
        <time>2019-11-21T18:45:13Z</time>
      </trkpt>
      <trkpt lat="56.831618622263" lon="14.793330728763">
        <ele>174</ele>
        <time>2019-11-21T18:45:15Z</time>
      </trkpt>
      <trkpt lat="56.831696657752" lon="14.793302565579">
        <ele>173.6</ele>
        <time>2019-11-21T18:45:20Z</time>
      </trkpt>
      <trkpt lat="56.831722138728" lon="14.793279347716">
        <ele>173</ele>
        <time>2019-11-21T18:45:22Z</time>
      </trkpt>
      <trkpt lat="56.831728928067" lon="14.793274905309">
        <ele>172.2</ele>
        <time>2019-11-21T18:45:23Z</time>
      </trkpt>
      <trkpt lat="56.831742171469" lon="14.793277168422">
        <ele>171.6</ele>
        <time>2019-11-21T18:45:24Z</time>
      </trkpt>
      <trkpt lat="56.831777543087" lon="14.79326141045">
        <ele>170.6</ele>
        <time>2019-11-21T18:45:26Z</time>
      </trkpt>
      <trkpt lat="56.831842083717" lon="14.793210197041">
        <ele>169.4</ele>
        <time>2019-11-21T18:45:30Z</time>
      </trkpt>
      <trkpt lat="56.831850968531" lon="14.793210364679">
        <ele>169.2</ele>
        <time>2019-11-21T18:45:31Z</time>
      </trkpt>
      <trkpt lat="56.831857590232" lon="14.793178932554">
        <ele>168.4</ele>
        <time>2019-11-21T18:45:36Z</time>
      </trkpt>
      <trkpt lat="56.831894889687" lon="14.793015904599">
        <ele>168.2</ele>
        <time>2019-11-21T18:45:43Z</time>
      </trkpt>
      <trkpt lat="56.831884663769" lon="14.792868466978">
        <ele>168.4</ele>
        <time>2019-11-21T18:45:48Z</time>
      </trkpt>
      <trkpt lat="56.831908552184" lon="14.792788000738">
        <ele>169.2</ele>
        <time>2019-11-21T18:45:51Z</time>
      </trkpt>
      <trkpt lat="56.831893213307" lon="14.792745420686">
        <ele>169.6</ele>
        <time>2019-11-21T18:45:52Z</time>
      </trkpt>
      <trkpt lat="56.831887513615" lon="14.792700828978">
        <ele>169.8</ele>
        <time>2019-11-21T18:45:54Z</time>
      </trkpt>
      <trkpt lat="56.831855159481" lon="14.7926453408">
        <ele>169.8</ele>
        <time>2019-11-21T18:46:00Z</time>
      </trkpt>
      <trkpt lat="56.831843257183" lon="14.7925866675">
        <ele>169.6</ele>
        <time>2019-11-21T18:46:03Z</time>
      </trkpt>
      <trkpt lat="56.83186111063" lon="14.792632516493">
        <ele>169.2</ele>
        <time>2019-11-21T18:46:08Z</time>
      </trkpt>
      <trkpt lat="56.831883155027" lon="14.792705019928">
        <ele>169.4</ele>
        <time>2019-11-21T18:46:12Z</time>
      </trkpt>
      <trkpt lat="56.831887681253" lon="14.79273167437">
        <ele>169.6</ele>
        <time>2019-11-21T18:46:14Z</time>
      </trkpt>
      <trkpt lat="56.831897236619" lon="14.792841058165">
        <ele>169.4</ele>
        <time>2019-11-21T18:46:18Z</time>
      </trkpt>
      <trkpt lat="56.831919281016" lon="14.792917501093">
        <ele>169</ele>
        <time>2019-11-21T18:46:20Z</time>
      </trkpt>
      <trkpt lat="56.831971584072" lon="14.792968127769">
        <ele>168.4</ele>
        <time>2019-11-21T18:46:23Z</time>
      </trkpt>
      <trkpt lat="56.83216034446" lon="14.792977683135">
        <ele>168</ele>
        <time>2019-11-21T18:46:33Z</time>
      </trkpt>
      <trkpt lat="56.832178533183" lon="14.792968295407">
        <ele>168.2</ele>
        <time>2019-11-21T18:46:34Z</time>
      </trkpt>
      <trkpt lat="56.832282133467" lon="14.792924793346">
        <ele>169.4</ele>
        <time>2019-11-21T18:46:38Z</time>
      </trkpt>
      <trkpt lat="56.832377100394" lon="14.792929319572">
        <ele>167.8</ele>
        <time>2019-11-21T18:46:42Z</time>
      </trkpt>
      <trkpt lat="56.832460751756" lon="14.792971312891">
        <ele>166.8</ele>
        <time>2019-11-21T18:46:45Z</time>
      </trkpt>
      <trkpt lat="56.832651439981" lon="14.79303509915">
        <ele>166.4</ele>
        <time>2019-11-21T18:46:51Z</time>
      </trkpt>
      <trkpt lat="56.832807678597" lon="14.793262164821">
        <ele>167</ele>
        <time>2019-11-21T18:46:57Z</time>
      </trkpt>
      <trkpt lat="56.832917481487" lon="14.793289825091">
        <ele>167.2</ele>
        <time>2019-11-21T18:47:00Z</time>
      </trkpt>
      <trkpt lat="56.833059973787" lon="14.793472131416">
        <ele>167.8</ele>
        <time>2019-11-21T18:47:07Z</time>
      </trkpt>
      <trkpt lat="56.833205315933" lon="14.793662149089">
        <ele>167.6</ele>
        <time>2019-11-21T18:47:15Z</time>
      </trkpt>
      <trkpt lat="56.833243621216" lon="14.79374588427">
        <ele>167.4</ele>
        <time>2019-11-21T18:47:19Z</time>
      </trkpt>
      <trkpt lat="56.833298019747" lon="14.793753260342">
        <ele>167.6</ele>
        <time>2019-11-21T18:47:22Z</time>
      </trkpt>
      <trkpt lat="56.833372199562" lon="14.79372325314">
        <ele>168.2</ele>
        <time>2019-11-21T18:47:27Z</time>
      </trkpt>
      <trkpt lat="56.833420814582" lon="14.79368888735">
        <ele>167.8</ele>
        <time>2019-11-21T18:47:34Z</time>
      </trkpt>
      <trkpt lat="56.833484097927" lon="14.793605319807">
        <ele>167.8</ele>
        <time>2019-11-21T18:47:37Z</time>
      </trkpt>
      <trkpt lat="56.833606054572" lon="14.793365513648">
        <ele>168.4</ele>
        <time>2019-11-21T18:47:43Z</time>
      </trkpt>
      <trkpt lat="56.833760784446" lon="14.793212543973">
        <ele>168</ele>
        <time>2019-11-21T18:47:50Z</time>
      </trkpt>
      <trkpt lat="56.833786097784" lon="14.79318429697">
        <ele>168</ele>
        <time>2019-11-21T18:47:52Z</time>
      </trkpt>
      <trkpt lat="56.833969661394" lon="14.793053623149">
        <ele>167.8</ele>
        <time>2019-11-21T18:48:01Z</time>
      </trkpt>
      <trkpt lat="56.834128666037" lon="14.792825384012">
        <ele>167.4</ele>
        <time>2019-11-21T18:48:08Z</time>
      </trkpt>
      <trkpt lat="56.834321785013" lon="14.792743576668">
        <ele>168.8</ele>
        <time>2019-11-21T18:48:17Z</time>
      </trkpt>
      <trkpt lat="56.834346260161" lon="14.792748941084">
        <ele>169</ele>
        <time>2019-11-21T18:48:18Z</time>
      </trkpt>
      <trkpt lat="56.834570559805" lon="14.792776266078">
        <ele>169.4</ele>
        <time>2019-11-21T18:48:27Z</time>
      </trkpt>
      <trkpt lat="56.834688660776" lon="14.792808620212">
        <ele>170</ele>
        <time>2019-11-21T18:48:31Z</time>
      </trkpt>
      <trkpt lat="56.834861244097" lon="14.792911382306">
        <ele>169.6</ele>
        <time>2019-11-21T18:48:39Z</time>
      </trkpt>
      <trkpt lat="56.834930227134" lon="14.792964355914">
        <ele>169.6</ele>
        <time>2019-11-21T18:48:42Z</time>
      </trkpt>
      <trkpt lat="56.834975154118" lon="14.792873160842">
        <ele>170</ele>
        <time>2019-11-21T18:48:45Z</time>
      </trkpt>
      <trkpt lat="56.834947661486" lon="14.792782971598">
        <ele>169.8</ele>
        <time>2019-11-21T18:48:48Z</time>
      </trkpt>
      <trkpt lat="56.834988313701" lon="14.792771739852">
        <ele>170</ele>
        <time>2019-11-21T18:48:52Z</time>
      </trkpt>
      <trkpt lat="56.835109851251" lon="14.793034847693">
        <ele>170</ele>
        <time>2019-11-21T18:48:59Z</time>
      </trkpt>
      <trkpt lat="56.835218396856" lon="14.79332678927">
        <ele>170.2</ele>
        <time>2019-11-21T18:49:05Z</time>
      </trkpt>
      <trkpt lat="56.835329289393" lon="14.793612360603">
        <ele>170.4</ele>
        <time>2019-11-21T18:49:12Z</time>
      </trkpt>
      <trkpt lat="56.835456442816" lon="14.793875719901">
        <ele>170.4</ele>
        <time>2019-11-21T18:49:17Z</time>
      </trkpt>
      <trkpt lat="56.83553405921" lon="14.794052075077">
        <ele>170.2</ele>
        <time>2019-11-21T18:49:20Z</time>
      </trkpt>
      <trkpt lat="56.835638497684" lon="14.794328342501">
        <ele>169.8</ele>
        <time>2019-11-21T18:49:25Z</time>
      </trkpt>
      <trkpt lat="56.835791718816" lon="14.794523808409">
        <ele>170.2</ele>
        <time>2019-11-21T18:49:31Z</time>
      </trkpt>
      <trkpt lat="56.835990202208" lon="14.794526909712">
        <ele>170.4</ele>
        <time>2019-11-21T18:49:37Z</time>
      </trkpt>
      <trkpt lat="56.836170161601" lon="14.794521880572">
        <ele>170</ele>
        <time>2019-11-21T18:49:42Z</time>
      </trkpt>
      <trkpt lat="56.836374177047" lon="14.794506876971">
        <ele>170.2</ele>
        <time>2019-11-21T18:49:47Z</time>
      </trkpt>
      <trkpt lat="56.83657844395" lon="14.794502686021">
        <ele>170</ele>
        <time>2019-11-21T18:49:52Z</time>
      </trkpt>
      <trkpt lat="56.836794361694" lon="14.794492543922">
        <ele>170.4</ele>
        <time>2019-11-21T18:49:57Z</time>
      </trkpt>
      <trkpt lat="56.836994689104" lon="14.794494304121">
        <ele>170.4</ele>
        <time>2019-11-21T18:50:02Z</time>
      </trkpt>
      <trkpt lat="56.837136846128" lon="14.794510900283">
        <ele>170</ele>
        <time>2019-11-21T18:50:06Z</time>
      </trkpt>
    </trkseg>
  </trk>
</gpx>